Time;durP1;ratioP1;P1;durP2;ratioP2;P2;SDS_P1;SDS_P2;PMS_P1;PMS_P2;Temp;Humidity;BMP_temperature;BMP_pressure;BME280_temperature;BME280_humidity;BME280_pressure;Samples;Min_cycle;Max_cycle;Signal;HPM_P1;HPM_P2
2021/03/12 00:01:07;;;;;;;10.37;9.97;;;7.10;99.90;;;;;;5090569;28;20446;-73
2021/03/12 00:03:36;;;;;;;8.73;8.43;;;7.10;99.90;;;;;;5091277;28;20460;-73
2021/03/12 00:06:05;;;;;;;8.93;8.63;;;7.10;99.90;;;;;;5091133;28;20952;-73
2021/03/12 00:08:33;;;;;;;9.00;8.60;;;7.20;99.90;;;;;;5090782;28;20489;-74
2021/03/12 00:11:00;;;;;;;9.53;9.13;;;7.30;99.90;;;;;;5091635;28;20456;-75
2021/03/12 00:13:26;;;;;;;10.10;9.70;;;7.30;99.90;;;;;;5091235;28;20450;-75
2021/03/12 00:15:53;;;;;;;8.80;8.60;;;7.40;99.90;;;;;;5091084;28;20848;-75
2021/03/12 00:18:21;;;;;;;9.50;9.20;;;7.50;99.90;;;;;;5090939;28;20452;-75
2021/03/12 00:20:48;;;;;;;9.00;8.70;;;7.60;99.90;;;;;;5090578;28;20449;-75
2021/03/12 00:23:14;;;;;;;9.03;8.63;;;7.60;99.90;;;;;;5091198;28;20853;-75
2021/03/12 00:25:43;;;;;;;9.00;8.70;;;7.70;99.90;;;;;;5091328;28;20457;-76
2021/03/12 00:28:11;;;;;;;8.90;8.60;;;7.70;99.90;;;;;;5090818;28;20485;-76
2021/03/12 00:30:39;;;;;;;8.97;8.40;;;7.90;99.90;;;;;;5090625;28;20453;-75
2021/03/12 00:33:06;;;;;;;10.10;9.60;;;8.00;99.90;;;;;;5090705;28;20662;-75
2021/03/12 00:35:33;;;;;;;8.27;7.87;;;8.10;99.90;;;;;;5090857;28;20439;-74
2021/03/12 00:38:00;;;;;;;8.83;8.50;;;8.30;99.90;;;;;;5091025;28;20446;-75
2021/03/12 00:40:29;;;;;;;9.20;8.60;;;8.40;99.90;;;;;;5091037;28;20877;-74
2021/03/12 00:42:56;;;;;;;8.93;8.53;;;8.40;99.90;;;;;;5090867;28;20447;-74
2021/03/12 00:45:25;;;;;;;10.80;10.20;;;8.50;99.90;;;;;;5090707;28;20453;-74
2021/03/12 00:47:51;;;;;;;11.07;10.47;;;8.50;99.90;;;;;;5090748;28;20547;-74
2021/03/12 00:50:21;;;;;;;9.57;9.13;;;8.50;99.90;;;;;;5090679;28;20970;-75
2021/03/12 00:52:48;;;;;;;9.27;8.83;;;8.40;99.90;;;;;;5090632;28;20827;-74
2021/03/12 00:55:15;;;;;;;9.53;8.90;;;8.50;99.90;;;;;;5090912;28;20944;-73
2021/03/12 00:57:41;;;;;;;9.50;8.90;;;8.60;99.90;;;;;;5091021;28;20446;-74
2021/03/12 01:00:09;;;;;;;9.63;9.13;;;8.60;99.90;;;;;;5090884;28;20492;-74
2021/03/12 01:02:35;;;;;;;9.80;9.40;;;8.60;99.90;;;;;;5090614;28;20446;-73
2021/03/12 01:05:02;;;;;;;9.87;9.30;;;8.70;99.90;;;;;;5090429;28;20465;-73
2021/03/12 01:07:28;;;;;;;9.93;9.30;;;8.70;99.90;;;;;;5090781;28;20474;-73
2021/03/12 01:09:54;;;;;;;10.63;10.07;;;8.80;99.90;;;;;;5090989;28;20446;-73
2021/03/12 01:12:21;;;;;;;9.73;9.33;;;8.80;99.90;;;;;;5092476;28;20454;-73
2021/03/12 01:14:47;;;;;;;10.33;9.53;;;8.80;99.90;;;;;;5094491;28;20928;-72
2021/03/12 01:17:13;;;;;;;11.63;10.93;;;8.80;99.90;;;;;;5094828;28;20468;-73
2021/03/12 01:19:40;;;;;;;9.80;9.40;;;8.80;99.90;;;;;;5094471;28;20438;-72
2021/03/12 01:22:06;;;;;;;10.83;10.13;;;8.70;99.90;;;;;;5094241;28;20496;-72
2021/03/12 01:24:32;;;;;;;10.13;9.40;;;8.60;99.90;;;;;;5094383;28;20499;-72
2021/03/12 01:26:59;;;;;;;11.03;10.13;;;8.60;99.90;;;;;;5094368;28;20484;-72
2021/03/12 01:29:26;;;;;;;9.80;9.40;;;8.60;99.90;;;;;;5094511;28;20473;-73
2021/03/12 01:31:52;;;;;;;9.10;8.57;;;8.60;99.90;;;;;;5093775;28;20446;-74
2021/03/12 01:34:19;;;;;;;10.23;9.50;;;8.60;99.90;;;;;;5094294;28;20902;-75
2021/03/12 01:36:45;;;;;;;9.83;9.00;;;8.60;99.90;;;;;;5094323;28;20474;-74
2021/03/12 01:39:11;;;;;;;9.20;8.70;;;8.70;99.90;;;;;;5094123;28;20515;-74
2021/03/12 01:41:37;;;;;;;10.10;9.60;;;8.70;99.90;;;;;;5094176;28;20507;-74
2021/03/12 01:44:05;;;;;;;9.70;9.10;;;8.70;99.90;;;;;;5093671;28;20450;-73
2021/03/12 01:46:32;;;;;;;9.50;9.00;;;8.80;99.90;;;;;;5093946;28;20788;-73
2021/03/12 01:48:58;;;;;;;10.03;9.43;;;8.80;99.90;;;;;;5094262;28;20457;-73
2021/03/12 01:51:24;;;;;;;10.20;9.70;;;8.80;99.90;;;;;;5093865;28;20446;-73
2021/03/12 01:53:51;;;;;;;9.63;9.13;;;8.80;99.90;;;;;;5093851;28;20975;-73
2021/03/12 01:56:17;;;;;;;10.70;9.90;;;8.90;99.90;;;;;;5093520;28;20462;-73
2021/03/12 01:58:44;;;;;;;9.80;9.40;;;8.90;99.90;;;;;;5093959;28;20470;-73
2021/03/12 02:01:10;;;;;;;9.17;8.67;;;8.70;99.90;;;;;;5093798;28;20495;-72
2021/03/12 02:03:37;;;;;;;10.70;8.90;;;8.70;99.90;;;;;;5093630;28;20438;-71
2021/03/12 02:06:04;;;;;;;9.83;9.43;;;8.50;99.90;;;;;;5093704;28;20932;-72
2021/03/12 02:08:30;;;;;;;14.00;11.23;;;8.40;99.90;;;;;;5093383;28;20478;-72
2021/03/12 02:10:57;;;;;;;9.67;9.17;;;8.30;99.90;;;;;;5093907;28;20491;-72
2021/03/12 02:13:31;;;;;;;10.17;9.53;;;8.00;99.90;;;;;;5093463;28;20454;-73
2021/03/12 02:16:04;;;;;;;9.30;9.00;;;7.80;99.90;;;;;;5093470;28;20450;-72
2021/03/12 02:18:35;;;;;;;9.27;8.77;;;7.70;99.90;;;;;;5093640;28;20811;-72
2021/03/12 02:21:10;;;;;;;9.07;8.63;;;7.60;99.90;;;;;;5093373;28;20529;-72
2021/03/12 02:24:04;;;;;;;9.80;9.00;;;7.60;99.90;;;;;;5092182;28;20469;-73
2021/03/12 02:26:54;;;;;;;8.80;8.40;;;7.50;99.90;;;;;;5091503;28;20458;-72
2021/03/12 02:29:22;;;;;;;9.30;9.00;;;7.50;99.90;;;;;;5093056;28;20450;-72
2021/03/12 02:31:53;;;;;;;9.23;8.90;;;7.50;99.90;;;;;;5093092;28;20473;-72
2021/03/12 02:34:22;;;;;;;9.67;9.27;;;7.50;99.90;;;;;;5092722;28;20515;-72
2021/03/12 02:36:52;;;;;;;10.20;9.80;;;7.50;99.90;;;;;;5092921;28;20528;-72
2021/03/12 02:39:23;;;;;;;10.90;10.33;;;7.40;99.90;;;;;;5092902;28;20951;-72
2021/03/12 02:41:50;;;;;;;9.57;9.07;;;7.30;99.90;;;;;;5092840;28;20446;-72
2021/03/12 02:44:18;;;;;;;10.00;9.17;;;7.40;99.90;;;;;;5092545;28;20872;-72
2021/03/12 02:46:45;;;;;;;9.20;8.70;;;7.40;99.90;;;;;;5092796;28;20507;-72
2021/03/12 02:49:12;;;;;;;9.83;9.43;;;7.40;99.90;;;;;;5092897;28;20450;-72
2021/03/12 02:51:39;;;;;;;9.70;9.30;;;7.40;99.90;;;;;;5092753;28;20548;-72
2021/03/12 02:54:06;;;;;;;9.73;9.23;;;7.30;99.90;;;;;;5092795;28;21178;-72
2021/03/12 02:56:33;;;;;;;9.27;8.80;;;7.30;99.90;;;;;;5092469;28;20475;-72
2021/03/12 02:58:59;;;;;;;9.60;9.17;;;7.30;99.90;;;;;;5092612;28;20445;-73
2021/03/12 03:01:28;;;;;;;9.17;8.77;;;7.20;99.90;;;;;;5092637;28;20947;-72
2021/03/12 03:03:55;;;;;;;8.70;8.40;;;7.30;99.90;;;;;;5092176;28;21013;-72
2021/03/12 03:06:22;;;;;;;9.90;9.50;;;7.30;99.90;;;;;;5092341;28;20476;-73
2021/03/12 03:08:48;;;;;;;9.37;8.80;;;7.20;99.90;;;;;;5092175;28;20486;-72
2021/03/12 03:11:16;;;;;;;8.63;8.23;;;7.20;99.90;;;;;;5092432;28;20552;-73
2021/03/12 03:13:45;;;;;;;9.40;9.00;;;7.10;99.90;;;;;;5092042;28;20450;-73
2021/03/12 03:16:15;;;;;;;9.63;9.20;;;7.10;99.90;;;;;;5092339;28;20442;-73
2021/03/12 03:18:43;;;;;;;10.27;9.50;;;7.10;99.90;;;;;;5092071;28;20454;-73
2021/03/12 03:21:11;;;;;;;12.30;11.40;;;7.10;99.90;;;;;;5091769;28;20825;-73
2021/03/12 03:23:38;;;;;;;10.13;9.53;;;7.00;99.90;;;;;;5092002;28;20460;-73
2021/03/12 03:26:05;;;;;;;10.60;9.77;;;7.00;99.90;;;;;;5092278;28;20551;-74
2021/03/12 03:28:31;;;;;;;10.33;9.50;;;7.10;99.90;;;;;;5091860;28;20482;-73
2021/03/12 03:30:59;;;;;;;9.90;9.30;;;7.00;99.90;;;;;;5092029;28;20571;-74
2021/03/12 03:33:26;;;;;;;8.70;8.40;;;6.90;99.90;;;;;;5091929;28;20453;-74
2021/03/12 03:35:53;;;;;;;11.20;10.27;;;7.00;99.90;;;;;;5091611;28;20481;-73
2021/03/12 03:38:19;;;;;;;9.30;8.80;;;7.10;99.90;;;;;;5091677;28;20449;-73
2021/03/12 03:40:45;;;;;;;8.80;8.40;;;7.20;99.90;;;;;;5091478;28;20982;-73
2021/03/12 03:43:14;;;;;;;7.87;7.57;;;7.20;99.90;;;;;;5091807;28;20453;-73
2021/03/12 03:45:41;;;;;;;9.40;8.70;;;7.20;99.90;;;;;;5091634;28;20948;-73
2021/03/12 03:48:09;;;;;;;9.27;8.97;;;7.30;99.90;;;;;;5091417;28;20483;-73
2021/03/12 03:50:37;;;;;;;9.70;9.30;;;7.30;99.90;;;;;;5091364;28;20450;-74
2021/03/12 03:53:06;;;;;;;10.23;9.70;;;7.30;99.90;;;;;;5090882;28;20461;-72
2021/03/12 03:55:34;;;;;;;8.83;8.53;;;7.30;99.90;;;;;;5091093;28;20446;-72
2021/03/12 03:58:01;;;;;;;9.30;8.90;;;7.40;99.90;;;;;;5091635;28;20461;-72
2021/03/12 04:00:28;;;;;;;9.37;8.97;;;7.40;99.90;;;;;;5091651;28;20441;-72
2021/03/12 04:02:55;;;;;;;10.57;9.63;;;7.50;99.90;;;;;;5091233;28;20492;-72
2021/03/12 04:05:22;;;;;;;9.93;9.13;;;7.50;99.90;;;;;;5091340;28;20449;-72
2021/03/12 04:07:49;;;;;;;10.73;9.97;;;7.50;99.90;;;;;;5091149;28;20482;-73
2021/03/12 04:10:19;;;;;;;10.30;9.50;;;7.50;99.90;;;;;;5091575;28;20451;-74
2021/03/12 04:12:47;;;;;;;9.97;9.30;;;7.50;99.90;;;;;;5091400;28;20457;-73
2021/03/12 04:15:16;;;;;;;9.30;9.00;;;7.50;99.90;;;;;;5091230;28;20508;-73
2021/03/12 04:17:44;;;;;;;10.17;9.40;;;7.60;99.90;;;;;;5091261;28;20505;-73
2021/03/12 04:20:11;;;;;;;9.60;9.00;;;7.60;99.90;;;;;;5091244;28;20457;-73
2021/03/12 04:22:37;;;;;;;9.33;8.93;;;7.70;99.90;;;;;;5091028;28;20478;-72
2021/03/12 04:25:06;;;;;;;8.87;8.43;;;7.70;99.90;;;;;;5090957;28;20488;-73
2021/03/12 04:27:34;;;;;;;10.60;9.80;;;7.70;99.90;;;;;;5090481;28;21068;-73
2021/03/12 04:30:01;;;;;;;11.53;11.03;;;7.80;99.90;;;;;;5090977;28;20497;-74
2021/03/12 04:32:27;;;;;;;10.40;9.63;;;7.80;99.90;;;;;;5091047;28;20442;-74
2021/03/12 04:34:54;;;;;;;9.50;9.07;;;7.70;99.90;;;;;;5090817;28;20469;-75
2021/03/12 04:37:21;;;;;;;10.20;9.60;;;7.70;99.90;;;;;;5090667;28;20651;-75
2021/03/12 04:39:48;;;;;;;10.53;9.90;;;7.70;99.90;;;;;;5090968;28;20446;-74
2021/03/12 04:42:14;;;;;;;10.20;9.60;;;7.70;99.90;;;;;;5090980;28;20783;-74
2021/03/12 04:44:43;;;;;;;10.80;10.00;;;7.80;99.90;;;;;;5090662;28;20461;-73
2021/03/12 04:47:10;;;;;;;9.67;9.27;;;7.80;99.90;;;;;;5090006;28;20482;-73
2021/03/12 04:49:37;;;;;;;10.43;9.60;;;7.80;99.90;;;;;;5090495;28;20454;-73
2021/03/12 04:52:04;;;;;;;10.53;9.80;;;7.80;99.90;;;;;;5090913;28;20854;-74
2021/03/12 04:54:30;;;;;;;9.77;9.27;;;7.80;99.90;;;;;;5090597;28;20978;-74
2021/03/12 04:56:57;;;;;;;10.80;10.00;;;7.80;99.90;;;;;;5090823;28;20450;-73
2021/03/12 04:59:24;;;;;;;10.40;9.50;;;7.80;99.90;;;;;;5090681;28;20504;-73
2021/03/12 05:01:51;;;;;;;9.93;9.53;;;7.90;99.90;;;;;;5090288;28;20550;-73
2021/03/12 05:04:17;;;;;;;9.30;8.87;;;7.90;99.90;;;;;;5090403;28;20465;-73
2021/03/12 05:06:45;;;;;;;10.40;9.43;;;7.90;99.90;;;;;;5090609;28;20457;-73
2021/03/12 05:09:12;;;;;;;9.70;9.20;;;7.80;99.80;;;;;;5090576;28;20517;-72
2021/03/12 05:11:41;;;;;;;10.57;9.97;;;7.70;99.80;;;;;;5090184;28;20457;-73
2021/03/12 05:14:07;;;;;;;11.63;10.67;;;7.70;99.80;;;;;;5089765;28;20446;-72
2021/03/12 05:16:34;;;;;;;8.33;7.93;;;7.60;99.90;;;;;;5090024;28;20450;-72
2021/03/12 05:19:01;;;;;;;10.13;9.63;;;7.60;99.90;;;;;;5090402;28;20446;-73
2021/03/12 05:21:27;;;;;;;9.97;9.10;;;7.50;99.90;;;;;;5090575;28;20489;-72
2021/03/12 05:23:53;;;;;;;9.20;8.90;;;7.50;99.90;;;;;;5090234;28;20461;-73
2021/03/12 05:26:20;;;;;;;9.37;8.87;;;7.50;99.90;;;;;;5090145;28;20457;-73
2021/03/12 05:28:46;;;;;;;10.10;9.20;;;7.50;99.90;;;;;;5090115;28;20486;-73
2021/03/12 05:31:12;;;;;;;10.07;9.17;;;7.50;99.90;;;;;;5090729;28;20491;-73
2021/03/12 05:33:38;;;;;;;9.57;9.03;;;7.40;99.90;;;;;;5090192;28;20446;-72
2021/03/12 05:36:05;;;;;;;10.00;9.40;;;7.40;99.90;;;;;;5090152;28;20459;-72
2021/03/12 05:38:32;;;;;;;10.10;9.50;;;7.40;99.90;;;;;;5089934;28;20446;-72
2021/03/12 05:40:58;;;;;;;8.77;8.27;;;7.40;99.90;;;;;;5090365;28;20450;-73
2021/03/12 05:43:24;;;;;;;10.00;9.33;;;7.50;99.90;;;;;;5089840;28;20455;-73
2021/03/12 05:45:52;;;;;;;9.97;9.20;;;7.50;99.90;;;;;;5089990;28;20944;-73
2021/03/12 05:48:19;;;;;;;9.47;9.07;;;7.50;99.90;;;;;;5090151;28;20546;-73
2021/03/12 05:50:46;;;;;;;9.20;8.63;;;7.40;99.90;;;;;;5090500;28;20457;-73
2021/03/12 05:53:13;;;;;;;10.23;9.73;;;7.40;99.90;;;;;;5090081;28;20446;-74
2021/03/12 05:55:39;;;;;;;10.17;9.77;;;7.40;99.90;;;;;;5090030;28;20446;-74
2021/03/12 05:58:06;;;;;;;10.17;9.70;;;7.30;99.90;;;;;;5089947;28;20503;-74
2021/03/12 06:00:33;;;;;;;9.13;8.63;;;7.30;99.90;;;;;;5093767;28;20510;-73
2021/03/12 06:02:59;;;;;;;10.23;9.73;;;7.30;99.90;;;;;;5093786;28;20449;-74
2021/03/12 06:05:26;;;;;;;9.50;9.10;;;7.30;99.90;;;;;;5093630;28;20449;-74
2021/03/12 06:07:52;;;;;;;10.23;9.60;;;7.30;99.90;;;;;;5093425;28;20474;-74
2021/03/12 06:10:19;;;;;;;9.17;8.77;;;7.50;99.90;;;;;;5093247;28;20453;-75
2021/03/12 06:12:49;;;;;;;9.73;9.33;;;7.50;99.90;;;;;;5093183;28;20443;-74
2021/03/12 06:15:15;;;;;;;9.90;9.50;;;7.50;99.90;;;;;;5093610;28;20444;-74
2021/03/12 06:17:44;;;;;;;10.27;9.60;;;7.40;99.90;;;;;;5093688;28;20451;-73
2021/03/12 06:20:12;;;;;;;9.40;8.90;;;7.30;99.90;;;;;;5093273;28;20453;-73
2021/03/12 06:22:48;;;;;;;10.03;9.60;;;7.30;99.90;;;;;;5093026;28;20489;-74
2021/03/12 06:25:17;;;;;;;10.13;9.53;;;7.20;99.90;;;;;;5093410;28;20465;-74
2021/03/12 06:27:45;;;;;;;10.60;9.80;;;7.50;99.90;;;;;;5093485;28;20489;-73
2021/03/12 06:30:14;;;;;;;10.40;10.00;;;7.90;99.90;;;;;;5093446;28;20822;-72
2021/03/12 06:32:43;;;;;;;11.03;10.63;;;8.40;99.90;;;;;;5093597;28;20481;-73
2021/03/12 06:35:11;;;;;;;9.90;9.10;;;8.60;99.90;;;;;;5092986;28;20955;-73
2021/03/12 06:37:38;;;;;;;11.00;10.37;;;8.80;99.90;;;;;;5092669;28;20470;-73
2021/03/12 06:40:19;;;;;;;10.20;9.70;;;9.10;99.90;;;;;;5092807;28;20574;-73
2021/03/12 06:43:10;;;;;;;10.60;10.00;;;9.60;99.10;;;;;;5092893;28;20448;-73
2021/03/12 06:45:57;;;;;;;10.50;10.10;;;10.00;98.20;;;;;;5093073;28;20442;-74
2021/03/12 06:48:25;;;;;;;10.07;9.60;;;10.20;97.70;;;;;;5092973;28;20482;-74
2021/03/12 06:50:53;;;;;;;10.40;10.00;;;10.60;97.20;;;;;;5092816;28;20454;-74
2021/03/12 06:53:21;;;;;;;10.23;9.83;;;11.10;96.10;;;;;;5092789;28;20454;-73
2021/03/12 06:55:48;;;;;;;10.17;9.60;;;11.60;94.90;;;;;;5093071;28;20475;-73
2021/03/12 06:58:15;;;;;;;11.10;10.37;;;11.10;94.80;;;;;;5092877;28;20446;-72
2021/03/12 07:00:41;;;;;;;10.90;9.83;;;10.50;96.10;;;;;;5092806;28;20451;-74
2021/03/12 07:03:22;;;;;;;10.37;9.90;;;9.60;98.20;;;;;;5092585;28;20952;-73
2021/03/12 07:06:02;;;;;;;9.77;9.07;;;8.90;99.90;;;;;;5092525;28;20491;-73
2021/03/12 07:08:30;;;;;;;9.57;8.97;;;8.70;99.90;;;;;;5092662;28;20517;-73
2021/03/12 07:10:56;;;;;;;9.13;8.73;;;8.50;99.90;;;;;;5092235;28;20461;-70
2021/03/12 07:13:24;;;;;;;12.07;9.90;;;8.20;99.90;;;;;;5092313;28;20446;-71
2021/03/12 07:15:52;;;;;;;9.67;9.10;;;8.10;99.90;;;;;;5092175;28;20901;-70
2021/03/12 07:18:19;;;;;;;9.23;8.83;;;8.70;99.90;;;;;;5092204;28;20441;-72
2021/03/12 07:20:45;;;;;;;9.30;8.80;;;9.50;99.90;;;;;;5092388;28;20454;-71
2021/03/12 07:23:12;;;;;;;9.70;9.30;;;10.20;99.40;;;;;;5092510;28;20461;-72
2021/03/12 07:25:42;;;;;;;9.97;9.30;;;10.60;99.10;;;;;;5092400;28;20465;-72
2021/03/12 07:28:09;;;;;;;9.47;9.03;;;10.90;98.10;;;;;;5091961;28;20482;-73
2021/03/12 07:30:38;;;;;;;9.17;8.77;;;11.20;97.80;;;;;;5092226;28;20943;-71
2021/03/12 07:33:05;;;;;;;9.87;9.27;;;11.70;96.90;;;;;;5091862;28;20457;-71
2021/03/12 07:35:34;;;;;;;9.77;9.37;;;11.90;96.50;;;;;;5091822;28;20450;-72
2021/03/12 07:38:01;;;;;;;9.63;9.03;;;12.70;95.50;;;;;;5092012;28;20442;-71
2021/03/12 07:40:29;;;;;;;10.00;9.50;;;12.60;94.30;;;;;;5092248;28;20866;-71
2021/03/12 07:42:57;;;;;;;10.17;9.67;;;12.10;95.20;;;;;;5091703;28;20458;-72
2021/03/12 07:45:23;;;;;;;9.80;9.30;;;11.70;95.50;;;;;;5092195;28;20450;-72
2021/03/12 07:47:51;;;;;;;12.90;12.13;;;11.70;96.90;;;;;;5091793;28;20497;-71
2021/03/12 07:50:31;;;;;;;9.23;8.93;;;11.60;96.20;;;;;;5091606;28;20974;-72
2021/03/12 07:52:57;;;;;;;9.33;8.90;;;11.30;96.80;;;;;;5091970;28;20462;-72
2021/03/12 07:56:00;;;;;;;9.90;9.40;;;10.70;98.80;;;;;;5091443;28;20959;-72
2021/03/12 07:58:53;;;;;;;9.60;9.07;;;10.40;99.90;;;;;;5091469;28;20453;-72
2021/03/12 08:01:20;;;;;;;9.73;9.27;;;10.40;99.90;;;;;;5114149;27;21006;-72
2021/03/12 08:03:49;;;;;;;10.80;10.00;;;10.30;99.10;;;;;;5112602;27;20508;-73
2021/03/12 08:06:32;;;;;;;10.53;9.93;;;10.40;99.20;;;;;;5111037;28;20437;-71
2021/03/12 08:08:59;;;;;;;9.57;9.17;;;10.40;99.90;;;;;;5111529;28;20982;-72
2021/03/12 08:11:29;;;;;;;10.03;9.40;;;10.40;99.90;;;;;;5111354;28;20441;-72
2021/03/12 08:14:10;;;;;;;8.20;7.73;;;10.60;99.90;;;;;;5111256;28;20488;-72
2021/03/12 08:16:37;;;;;;;9.30;9.00;;;10.90;99.60;;;;;;5110807;28;20809;-73
2021/03/12 08:19:31;;;;;;;10.60;10.10;;;12.10;97.70;;;;;;5097364;28;20450;-71
2021/03/12 08:21:57;;;;;;;9.60;9.20;;;12.80;95.40;;;;;;5090265;28;20501;-72
2021/03/12 08:24:46;;;;;;;10.50;10.00;;;13.50;94.50;;;;;;5090963;28;20465;-73
2021/03/12 08:27:37;;;;;;;9.93;9.43;;;14.20;93.00;;;;;;5090819;28;20465;-73
2021/03/12 08:30:04;;;;;;;10.33;9.93;;;14.80;92.40;;;;;;5093880;28;20849;-73
2021/03/12 08:32:45;;;;;;;10.53;10.13;;;15.20;91.20;;;;;;5090726;28;20771;-72
2021/03/12 08:35:38;;;;;;;10.97;10.20;;;15.80;87.80;;;;;;5118151;27;20447;-72
2021/03/12 08:38:06;;;;;;;10.97;10.57;;;16.00;85.60;;;;;;5131416;27;20441;-74
2021/03/12 08:40:33;;;;;;;11.87;11.07;;;16.70;85.00;;;;;;5112674;28;21006;-72
2021/03/12 08:43:03;;;;;;;12.30;11.70;;;17.40;81.30;;;;;;5111232;28;20441;-74
2021/03/12 08:45:38;;;;;;;11.33;10.73;;;18.30;78.30;;;;;;5110739;28;20808;-73
2021/03/12 08:48:07;;;;;;;11.50;10.80;;;18.00;74.00;;;;;;5110581;28;20687;-72
2021/03/12 08:51:25;;;;;;;11.00;10.50;;;17.20;76.90;;;;;;5108976;28;20821;-71
2021/03/12 08:53:57;;;;;;;11.20;10.70;;;16.60;76.70;;;;;;5105829;28;20442;-72
2021/03/12 08:56:26;;;;;;;10.50;10.10;;;15.50;78.00;;;;;;5111041;28;20448;-71
2021/03/12 08:58:53;;;;;;;11.57;10.87;;;14.30;81.10;;;;;;5110994;28;20951;-71
2021/03/12 09:01:21;;;;;;;10.33;9.63;;;13.40;84.70;;;;;;5110879;28;20445;-71
2021/03/12 09:03:53;;;;;;;9.17;8.77;;;13.10;86.00;;;;;;5110867;28;20453;-72
2021/03/12 09:06:21;;;;;;;9.77;9.23;;;12.60;87.60;;;;;;5110743;28;20448;-72
2021/03/12 09:08:49;;;;;;;8.97;8.57;;;12.50;87.90;;;;;;5110672;28;20480;-72
2021/03/12 09:11:19;;;;;;;9.10;8.80;;;12.40;88.20;;;;;;5110842;28;20810;-72
2021/03/12 09:13:47;;;;;;;10.00;9.53;;;13.30;84.40;;;;;;5110833;28;20830;-72
2021/03/12 09:16:26;;;;;;;9.90;9.40;;;13.90;84.30;;;;;;5110915;28;20453;-73
2021/03/12 09:18:54;;;;;;;10.10;9.67;;;14.70;82.60;;;;;;5110852;27;20498;-71
2021/03/12 09:21:22;;;;;;;9.87;9.47;;;15.20;77.70;;;;;;5110595;28;20724;-72
2021/03/12 09:23:50;;;;;;;9.17;8.67;;;15.20;77.70;;;;;;5111231;28;20457;-72
2021/03/12 09:26:18;;;;;;;10.10;9.70;;;14.90;77.10;;;;;;5111422;28;20437;-72
2021/03/12 09:28:46;;;;;;;9.50;8.97;;;14.20;77.20;;;;;;5111227;28;20473;-72
2021/03/12 09:31:14;;;;;;;10.90;10.20;;;13.40;78.60;;;;;;5108676;28;21018;-72
2021/03/12 09:33:43;;;;;;;9.87;9.37;;;12.80;80.10;;;;;;5112661;28;20457;-72
2021/03/12 09:36:25;;;;;;;10.57;9.87;;;12.60;81.50;;;;;;5114445;28;20469;-73
2021/03/12 09:38:52;;;;;;;9.80;9.30;;;12.70;82.60;;;;;;5114326;28;20844;-73
2021/03/12 09:41:21;;;;;;;9.40;8.90;;;12.80;83.30;;;;;;5114297;28;20453;-73
2021/03/12 09:44:00;;;;;;;9.97;9.47;;;12.80;82.20;;;;;;5114059;28;20452;-73
2021/03/12 09:46:28;;;;;;;10.00;9.60;;;12.80;82.60;;;;;;5114128;28;20836;-74
2021/03/12 09:48:54;;;;;;;9.57;8.87;;;13.50;81.00;;;;;;5112141;28;20481;-74
2021/03/12 09:51:21;;;;;;;9.77;9.27;;;13.90;79.60;;;;;;5114242;28;20814;-73
2021/03/12 09:53:49;;;;;;;9.80;9.20;;;13.90;80.00;;;;;;5114112;28;20453;-73
2021/03/12 09:56:15;;;;;;;10.00;9.47;;;14.00;79.60;;;;;;5113990;28;20509;-73
2021/03/12 09:58:42;;;;;;;9.77;9.20;;;13.80;80.30;;;;;;5114292;28;20444;-73
2021/03/12 10:01:13;;;;;;;10.80;9.90;;;13.70;79.00;;;;;;5113965;28;20517;-73
2021/03/12 10:03:39;;;;;;;10.10;9.70;;;12.60;80.20;;;;;;5114031;28;20441;-73
2021/03/12 10:06:07;;;;;;;10.30;9.70;;;12.50;82.10;;;;;;5113809;28;20442;-73
2021/03/12 10:08:33;;;;;;;10.40;10.00;;;12.30;83.90;;;;;;5113672;28;20480;-73
2021/03/12 10:11:00;;;;;;;8.93;8.57;;;12.40;84.30;;;;;;5113586;28;20449;-73
2021/03/12 10:13:27;;;;;;;8.80;8.33;;;12.60;83.80;;;;;;5113812;28;20457;-73
2021/03/12 10:15:54;;;;;;;10.07;9.67;;;12.80;82.80;;;;;;5113751;28;21012;-73
2021/03/12 10:18:21;;;;;;;10.27;9.87;;;12.80;83.20;;;;;;5113750;28;20529;-73
2021/03/12 10:20:47;;;;;;;9.20;8.70;;;12.50;84.40;;;;;;5113286;28;20455;-73
2021/03/12 10:23:14;;;;;;;9.10;8.60;;;12.70;84.20;;;;;;5113956;28;20527;-73
2021/03/12 10:25:44;;;;;;;9.10;8.70;;;12.70;83.60;;;;;;5113623;28;20936;-73
2021/03/12 10:28:12;;;;;;;9.53;9.00;;;12.80;84.30;;;;;;5113376;28;20481;-73
2021/03/12 10:30:40;;;;;;;8.50;8.20;;;12.70;84.00;;;;;;5113254;28;20456;-73
2021/03/12 10:33:08;;;;;;;8.80;8.50;;;12.50;84.10;;;;;;5113279;28;20831;-73
2021/03/12 10:35:36;;;;;;;8.33;8.03;;;12.30;85.10;;;;;;5113390;28;20510;-73
2021/03/12 10:38:14;;;;;;;9.33;9.00;;;13.10;84.30;;;;;;5113338;28;20815;-73
2021/03/12 10:40:42;;;;;;;9.70;9.30;;;14.30;83.90;;;;;;5113450;28;20781;-74
2021/03/12 10:43:13;;;;;;;9.67;9.27;;;15.60;81.80;;;;;;5113051;28;20966;-74
2021/03/12 10:45:44;;;;;;;10.37;9.93;;;16.10;81.20;;;;;;5112308;28;20441;-74
2021/03/12 10:48:11;;;;;;;9.60;9.27;;;16.00;81.80;;;;;;5113144;28;20477;-74
2021/03/12 10:50:38;;;;;;;10.03;9.63;;;16.10;81.70;;;;;;5112930;28;20826;-74
2021/03/12 10:53:10;;;;;;;9.30;8.90;;;16.60;80.20;;;;;;5113094;27;20449;-75
2021/03/12 10:55:38;;;;;;;10.17;9.60;;;16.70;80.60;;;;;;5113085;28;20509;-73
2021/03/12 10:58:05;;;;;;;9.57;9.27;;;16.40;77.30;;;;;;5113131;28;20882;-73
2021/03/12 11:00:32;;;;;;;10.63;10.23;;;15.80;81.20;;;;;;5113119;28;20451;-74
2021/03/12 11:03:01;;;;;;;9.17;8.80;;;15.90;80.30;;;;;;5113599;28;20452;-74
2021/03/12 11:05:29;;;;;;;10.87;9.87;;;15.30;80.60;;;;;;5113161;28;20803;-74
2021/03/12 11:07:56;;;;;;;9.93;9.63;;;15.30;86.30;;;;;;5113185;28;20480;-74
2021/03/12 11:10:23;;;;;;;10.10;9.60;;;15.70;86.60;;;;;;5112954;28;20448;-74
2021/03/12 11:12:51;;;;;;;10.23;9.80;;;16.10;82.10;;;;;;5113204;28;20449;-77
2021/03/12 11:15:19;;;;;;;10.13;9.83;;;16.70;78.60;;;;;;5113305;28;20449;-76
2021/03/12 11:17:46;;;;;;;10.50;10.10;;;17.20;76.50;;;;;;5113235;28;20522;-73
2021/03/12 11:20:18;;;;;;;9.67;9.30;;;17.90;72.00;;;;;;5112976;28;20550;-74
2021/03/12 11:22:46;;;;;;;10.30;10.00;;;17.70;71.40;;;;;;5112672;28;20469;-73
2021/03/12 11:25:13;;;;;;;10.20;9.90;;;18.30;68.30;;;;;;5112549;28;20449;-74
2021/03/12 11:27:39;;;;;;;10.30;10.00;;;18.60;67.10;;;;;;5112324;28;20534;-74
2021/03/12 11:30:09;;;;;;;11.47;11.07;;;19.30;63.10;;;;;;5112422;28;20449;-74
2021/03/12 11:32:35;;;;;;;10.70;10.30;;;19.80;61.00;;;;;;5112063;28;20468;-74
2021/03/12 11:35:02;;;;;;;10.37;9.97;;;19.50;57.40;;;;;;5118598;27;20452;-74
2021/03/12 11:37:28;;;;;;;12.10;11.50;;;18.50;60.00;;;;;;5127465;27;20994;-74
2021/03/12 11:39:55;;;;;;;10.17;9.77;;;18.70;59.40;;;;;;5112371;28;20445;-75
2021/03/12 11:42:22;;;;;;;10.50;10.10;;;18.30;58.20;;;;;;5122748;27;20961;-74
2021/03/12 11:44:48;;;;;;;10.37;10.07;;;18.00;58.20;;;;;;5118047;27;20457;-74
2021/03/12 11:47:14;;;;;;;10.00;9.60;;;17.20;59.30;;;;;;5120166;27;20841;-74
2021/03/12 11:49:45;;;;;;;10.53;10.07;;;17.00;60.30;;;;;;5120462;27;20480;-73
2021/03/12 11:52:11;;;;;;;9.57;9.27;;;16.70;58.60;;;;;;5129677;27;20788;-74
2021/03/12 11:54:37;;;;;;;10.07;9.70;;;16.30;61.50;;;;;;5116137;27;20450;-73
2021/03/12 11:57:05;;;;;;;9.77;9.40;;;16.40;60.30;;;;;;5111890;28;20862;-74
2021/03/12 11:59:32;;;;;;;10.60;10.10;;;17.50;58.60;;;;;;5112377;28;20448;-74
2021/03/12 12:01:59;;;;;;;10.73;10.23;;;17.90;57.10;;;;;;5119864;27;20499;-74
2021/03/12 12:04:27;;;;;;;11.10;10.60;;;17.60;56.50;;;;;;5112124;28;20456;-73
2021/03/12 12:06:53;;;;;;;10.17;9.87;;;16.90;57.20;;;;;;5113618;27;20445;-74
2021/03/12 12:09:19;;;;;;;9.90;9.60;;;15.90;59.00;;;;;;5132536;27;20483;-73
2021/03/12 12:11:46;;;;;;;10.10;9.70;;;16.60;59.50;;;;;;5132741;27;20451;-73
2021/03/12 12:14:14;;;;;;;10.47;9.97;;;17.70;57.50;;;;;;5132702;27;20819;-74
2021/03/12 12:16:40;;;;;;;10.80;10.30;;;17.10;56.60;;;;;;5132784;27;20448;-72
2021/03/12 12:19:11;;;;;;;10.43;9.90;;;16.50;56.80;;;;;;5116988;27;20519;-72
2021/03/12 12:21:38;;;;;;;10.23;9.83;;;17.00;57.00;;;;;;5111656;28;20477;-73
2021/03/12 12:24:06;;;;;;;10.20;9.60;;;18.00;55.00;;;;;;5111989;28;20971;-73
2021/03/12 12:26:33;;;;;;;10.23;9.90;;;18.90;52.00;;;;;;5111737;28;20460;-73
2021/03/12 12:29:00;;;;;;;10.37;9.97;;;19.30;52.60;;;;;;5111712;28;20588;-73
2021/03/12 12:31:30;;;;;;;11.27;10.70;;;19.70;50.80;;;;;;5111597;28;20450;-72
2021/03/12 12:33:56;;;;;;;11.07;10.57;;;19.30;53.80;;;;;;5111876;28;20468;-73
2021/03/12 12:36:23;;;;;;;11.20;10.53;;;19.00;58.80;;;;;;5111419;28;20481;-73
2021/03/12 12:38:49;;;;;;;10.77;10.37;;;18.10;61.00;;;;;;5111499;28;20445;-72
2021/03/12 12:41:16;;;;;;;10.73;10.23;;;17.10;59.50;;;;;;5111554;28;20961;-73
2021/03/12 12:43:42;;;;;;;10.90;10.50;;;16.20;56.50;;;;;;5110902;28;20552;-75
2021/03/12 12:46:08;;;;;;;10.57;10.17;;;16.60;55.70;;;;;;5111530;28;20449;-74
2021/03/12 12:48:36;;;;;;;10.40;9.80;;;16.20;56.30;;;;;;5111522;28;20485;-74
2021/03/12 12:51:02;;;;;;;10.40;10.00;;;16.10;60.50;;;;;;5111563;28;20568;-75
2021/03/12 12:53:29;;;;;;;11.63;10.90;;;17.10;59.10;;;;;;5119309;28;20445;-72